Time;durP1;ratioP1;P1;durP2;ratioP2;P2;SDS_P1;SDS_P2;PMS_P1;PMS_P2;Temp;Humidity;BMP_temperature;BMP_pressure;BME280_temperature;BME280_humidity;BME280_pressure;Samples;Min_cycle;Max_cycle;Signal;HPM_P1;HPM_P2
2023/04/02 00:01:25;;;;;;;6.78;5.30;;;;;13.20;100974.00;;;;5007528;28;20220;-78
2023/04/02 00:04:14;;;;;;;5.93;3.97;;;;;13.10;100979.00;;;;5006743;28;20296;-78
2023/04/02 00:06:44;;;;;;;4.45;3.88;;;;;13.20;100990.00;;;;5008494;28;20213;-78
2023/04/02 00:09:24;;;;;;;6.28;4.95;;;;;13.10;100991.00;;;;5006171;28;20197;-78
2023/04/02 00:11:54;;;;;;;7.00;4.82;;;;;13.20;100994.00;;;;5010943;28;20565;-77
2023/04/02 00:14:27;;;;;;;6.03;4.43;;;;;13.10;100989.00;;;;5009280;28;20761;-78
2023/04/02 00:16:56;;;;;;;5.28;4.40;;;;;13.20;100999.00;;;;5007883;28;20213;-78
2023/04/02 00:19:30;;;;;;;8.63;5.20;;;;;13.20;100997.00;;;;5004387;28;20235;-78
2023/04/02 00:21:59;;;;;;;7.25;5.18;;;;;13.20;100996.00;;;;5009689;28;20204;-78
2023/04/02 00:24:28;;;;;;;7.47;5.60;;;;;13.20;101003.00;;;;5006711;28;20682;-78
2023/04/02 00:26:56;;;;;;;7.85;5.85;;;;;13.10;101002.00;;;;5009131;28;20220;-78
2023/04/02 00:29:23;;;;;;;7.57;5.20;;;;;13.10;101011.00;;;;5009460;28;20200;-78
2023/04/02 00:31:52;;;;;;;6.18;5.55;;;;;13.10;101018.00;;;;5008154;28;20205;-80
2023/04/02 00:34:22;;;;;;;6.97;5.35;;;;;13.10;101018.00;;;;5003132;28;20197;-77
2023/04/02 00:36:51;;;;;;;8.48;4.63;;;;;13.00;101032.00;;;;5006876;28;20208;-77
2023/04/02 00:39:22;;;;;;;11.50;6.13;;;;;13.00;101033.00;;;;5008924;28;20732;-76
2023/04/02 00:41:57;;;;;;;8.55;6.05;;;;;13.00;101036.00;;;;5007684;28;20204;-77
2023/04/02 00:44:28;;;;;;;8.63;6.15;;;;;13.00;101036.00;;;;5007827;28;20235;-76
2023/04/02 00:46:56;;;;;;;7.47;5.47;;;;;13.00;101048.00;;;;5009087;28;20216;-77
2023/04/02 00:49:31;;;;;;;6.55;5.45;;;;;12.90;101056.00;;;;5009385;28;20207;-77
2023/04/02 00:52:01;;;;;;;9.65;6.32;;;;;12.90;101056.00;;;;5007215;28;20204;-77
2023/04/02 00:54:32;;;;;;;9.10;6.47;;;;;12.90;101059.00;;;;4993619;28;20201;-78
2023/04/02 00:57:02;;;;;;;7.80;6.03;;;;;12.90;101069.00;;;;5007944;28;20201;-78
2023/04/02 00:59:32;;;;;;;7.28;5.85;;;;;12.90;101079.00;;;;5009009;28;20244;-78
2023/04/02 01:02:21;;;;;;;7.55;5.78;;;;;12.90;101071.00;;;;5009131;28;20201;-78
2023/04/02 01:04:53;;;;;;;5.88;5.28;;;;;12.80;101082.00;;;;5006592;28;20217;-78
2023/04/02 01:07:41;;;;;;;8.15;6.20;;;;;12.80;101094.00;;;;5009315;28;20323;-78
2023/04/02 01:10:36;;;;;;;7.78;5.97;;;;;12.70;101091.00;;;;4990248;28;20850;-78
2023/04/02 01:13:13;;;;;;;6.82;5.40;;;;;12.70;101103.00;;;;4992181;28;20197;-78
2023/04/02 01:15:43;;;;;;;7.28;5.93;;;;;12.80;101100.00;;;;5008442;28;20192;-78
2023/04/02 01:18:30;;;;;;;7.25;5.60;;;;;12.70;101096.00;;;;5009864;28;20878;-78
2023/04/02 01:21:16;;;;;;;7.60;5.55;;;;;12.70;101109.00;;;;5008066;28;20236;-78
2023/04/02 01:23:53;;;;;;;7.28;5.78;;;;;12.70;101113.00;;;;5007922;28;20686;-78
2023/04/02 01:26:36;;;;;;;7.47;5.53;;;;;12.70;101109.00;;;;5008725;28;20204;-77
2023/04/02 01:29:10;;;;;;;6.63;4.97;;;;;12.70;101121.00;;;;5004439;28;20309;-78
2023/04/02 01:31:38;;;;;;;6.82;5.00;;;;;12.70;101112.00;;;;5007557;28;20193;-77
2023/04/02 01:34:08;;;;;;;6.28;5.47;;;;;12.70;101120.00;;;;5007823;28;20197;-77
2023/04/02 01:36:43;;;;;;;6.03;5.20;;;;;12.70;101122.00;;;;5005896;28;20197;-77
2023/04/02 01:39:22;;;;;;;8.82;6.18;;;;;12.60;101133.00;;;;5008529;28;20207;-77
2023/04/02 01:41:57;;;;;;;9.05;5.28;;;;;12.60;101144.00;;;;5007492;28;20199;-78
2023/04/02 01:44:31;;;;;;;8.30;5.22;;;;;12.70;101138.00;;;;5000946;28;20217;-77
2023/04/02 01:47:02;;;;;;;8.75;5.07;;;;;12.70;101145.00;;;;5008097;28;20216;-77
2023/04/02 01:49:31;;;;;;;5.78;5.18;;;;;12.70;101145.00;;;;5008160;28;20561;-78
2023/04/02 01:51:59;;;;;;;8.23;5.57;;;;;12.70;101152.00;;;;5003425;28;20205;-78
2023/04/02 01:54:27;;;;;;;6.30;4.60;;;;;12.60;101157.00;;;;5007397;28;20623;-77
2023/04/02 01:56:56;;;;;;;8.85;5.97;;;;;12.60;101162.00;;;;5007363;28;21106;-78
2023/04/02 01:59:25;;;;;;;6.78;5.55;;;;;12.60;101164.00;;;;5007460;28;20232;-77
2023/04/02 02:01:58;;;;;;;8.02;5.72;;;;;12.50;101169.00;;;;5005672;28;20204;-77
2023/04/02 02:04:26;;;;;;;7.93;5.50;;;;;12.50;101183.00;;;;5005295;28;21007;-78
2023/04/02 02:06:57;;;;;;;10.60;5.45;;;;;12.50;101176.00;;;;5005711;28;20557;-78
2023/04/02 02:09:28;;;;;;;5.95;5.18;;;;;12.50;101183.00;;;;5006399;28;20780;-78
2023/04/02 02:11:57;;;;;;;5.75;4.75;;;;;12.50;101181.00;;;;5006486;28;20216;-77
2023/04/02 02:14:28;;;;;;;6.47;5.43;;;;;12.40;101194.00;;;;5007720;28;20215;-77
2023/04/02 02:16:58;;;;;;;5.85;5.25;;;;;12.50;101193.00;;;;5010224;28;20217;-78
2023/04/02 02:19:30;;;;;;;5.13;4.50;;;;;12.40;101201.00;;;;5006122;28;20228;-78
2023/04/02 02:22:04;;;;;;;6.35;4.95;;;;;12.40;101207.00;;;;5011747;28;20208;-78
2023/04/02 02:24:34;;;;;;;5.90;5.00;;;;;12.40;101213.00;;;;5010538;28;20211;-78
2023/04/02 02:27:27;;;;;;;6.55;5.03;;;;;12.30;101209.00;;;;5011624;28;20319;-77
2023/04/02 02:30:00;;;;;;;6.28;4.35;;;;;12.30;101208.00;;;;5010572;28;20223;-77
2023/04/02 02:32:30;;;;;;;6.25;4.53;;;;;12.30;101212.00;;;;5010824;28;20319;-77
2023/04/02 02:35:05;;;;;;;7.65;5.60;;;;;12.30;101215.00;;;;4995203;28;20215;-77
2023/04/02 02:37:37;;;;;;;6.85;5.35;;;;;12.30;101223.00;;;;5003493;28;20196;-78
2023/04/02 02:40:12;;;;;;;8.00;5.00;;;;;12.30;101232.00;;;;5011383;28;20741;-78
2023/04/02 02:42:43;;;;;;;5.30;4.50;;;;;12.30;101219.00;;;;5010150;28;20200;-77
2023/04/02 02:45:18;;;;;;;5.85;4.68;;;;;12.20;101231.00;;;;5010364;28;20205;-77
2023/04/02 02:47:47;;;;;;;5.53;4.72;;;;;12.30;101232.00;;;;5010731;28;20204;-77
2023/04/02 02:50:19;;;;;;;7.35;4.32;;;;;12.20;101240.00;;;;5010053;28;20201;-78
2023/04/02 02:52:51;;;;;;;5.05;4.40;;;;;12.20;101247.00;;;;5002495;28;20201;-77
2023/04/02 02:55:21;;;;;;;5.65;4.10;;;;;12.30;101257.00;;;;5011546;28;20212;-77
2023/04/02 02:57:52;;;;;;;6.25;4.70;;;;;12.20;101262.00;;;;5010737;28;20207;-78
2023/04/02 03:00:23;;;;;;;6.60;5.18;;;;;12.20;101272.00;;;;5011028;28;20232;-77
2023/04/02 03:02:52;;;;;;;6.65;5.60;;;;;12.30;101269.00;;;;5010031;28;20546;-77
2023/04/02 03:05:23;;;;;;;8.02;4.85;;;;;12.20;101276.00;;;;5010917;28;20705;-77
2023/04/02 03:07:53;;;;;;;7.55;4.70;;;;;12.20;101286.00;;;;5009741;28;20686;-77
2023/04/02 03:10:28;;;;;;;5.65;4.13;;;;;12.20;101288.00;;;;5008657;28;20718;-77
2023/04/02 03:13:02;;;;;;;10.07;5.32;;;;;12.20;101290.00;;;;5010041;28;20205;-77
2023/04/02 03:15:35;;;;;;;7.32;4.68;;;;;12.10;101294.00;;;;5010016;28;20227;-77
2023/04/02 03:18:06;;;;;;;5.43;4.18;;;;;12.20;101303.00;;;;5009479;28;20209;-77
2023/04/02 03:20:38;;;;;;;5.97;4.18;;;;;12.10;101306.00;;;;5009031;28;20567;-77
2023/04/02 03:23:13;;;;;;;8.30;4.82;;;;;12.10;101320.00;;;;5009536;28;20197;-77
2023/04/02 03:25:44;;;;;;;9.77;4.78;;;;;12.10;101324.00;;;;5007783;28;20200;-78
2023/04/02 03:28:18;;;;;;;5.18;4.35;;;;;12.00;101328.00;;;;5008614;28;20197;-77
2023/04/02 03:30:50;;;;;;;5.72;4.22;;;;;12.00;101336.00;;;;5009354;28;20207;-77
2023/04/02 03:33:23;;;;;;;5.68;4.45;;;;;12.00;101336.00;;;;5008706;28;20250;-77
2023/04/02 03:35:57;;;;;;;8.00;5.10;;;;;12.00;101346.00;;;;5008471;28;20201;-78
2023/04/02 03:38:29;;;;;;;6.68;4.85;;;;;11.90;101348.00;;;;5008943;28;20197;-78
2023/04/02 03:41:03;;;;;;;7.25;4.50;;;;;11.90;101357.00;;;;5009181;28;20251;-77
2023/04/02 03:43:35;;;;;;;5.78;4.60;;;;;11.90;101347.00;;;;5007373;28;20200;-77
2023/04/02 03:46:13;;;;;;;6.72;5.10;;;;;11.90;101366.00;;;;5009987;28;20201;-78
2023/04/02 03:48:44;;;;;;;7.40;4.82;;;;;11.90;101371.00;;;;5010111;28;20845;-77
2023/04/02 03:51:18;;;;;;;8.70;5.25;;;;;11.90;101380.00;;;;5010601;28;20203;-77
2023/04/02 03:53:46;;;;;;;6.22;4.78;;;;;11.90;101387.00;;;;5008466;28;20224;-78
2023/04/02 03:56:27;;;;;;;5.15;4.65;;;;;11.80;101391.00;;;;5007212;28;20197;-78
2023/04/02 03:59:05;;;;;;;6.35;4.88;;;;;11.80;101389.00;;;;4999635;28;20193;-78
2023/04/02 04:01:37;;;;;;;5.68;4.40;;;;;11.80;101403.00;;;;5008569;28;20197;-78
2023/04/02 04:04:09;;;;;;;6.07;4.63;;;;;11.80;101400.00;;;;5008155;28;20654;-79
2023/04/02 04:06:41;;;;;;;7.15;4.93;;;;;11.80;101409.00;;;;5009449;28;20208;-78
2023/04/02 04:09:11;;;;;;;6.45;5.10;;;;;11.80;101408.00;;;;5009722;28;20267;-78
2023/04/02 04:11:44;;;;;;;7.13;5.22;;;;;11.70;101411.00;;;;5009159;28;20208;-78
2023/04/02 04:14:17;;;;;;;6.13;4.45;;;;;11.70;101425.00;;;;5008454;28;20201;-78
2023/04/02 04:16:52;;;;;;;5.20;4.28;;;;;11.70;101420.00;;;;5008380;28;20573;-78
2023/04/02 04:19:28;;;;;;;7.47;5.47;;;;;11.70;101435.00;;;;4990611;28;20201;-78
2023/04/02 04:22:10;;;;;;;5.85;4.78;;;;;11.60;101440.00;;;;5005706;28;20201;-78
2023/04/02 04:24:38;;;;;;;8.57;5.60;;;;;11.60;101444.00;;;;5008231;28;20232;-78
2023/04/02 04:27:12;;;;;;;6.68;4.82;;;;;11.60;101454.00;;;;5009790;28;20208;-78
2023/04/02 04:29:46;;;;;;;6.78;4.55;;;;;11.60;101461.00;;;;5007406;28;20192;-79
2023/04/02 04:32:26;;;;;;;6.30;4.20;;;;;11.50;101461.00;;;;5006989;28;20193;-78
2023/04/02 04:34:56;;;;;;;5.93;4.75;;;;;11.60;101472.00;;;;5007081;28;20235;-79
2023/04/02 04:37:32;;;;;;;5.93;4.60;;;;;11.60;101464.00;;;;5008517;28;20201;-78
2023/04/02 04:40:06;;;;;;;5.05;4.25;;;;;11.60;101476.00;;;;5009007;28;20217;-79
2023/04/02 04:42:37;;;;;;;6.82;5.43;;;;;11.60;101488.00;;;;5008082;28;20193;-79
2023/04/02 04:45:17;;;;;;;8.45;5.18;;;;;11.50;101494.00;;;;5008912;28;20205;-79
2023/04/02 04:47:53;;;;;;;5.88;4.50;;;;;11.50;101494.00;;;;5009185;28;20213;-79
2023/04/02 04:50:31;;;;;;;5.38;4.88;;;;;11.40;101499.00;;;;5008564;28;20205;-78
2023/04/02 04:53:06;;;;;;;7.32;5.10;;;;;11.40;101500.00;;;;5008730;28;20659;-79
2023/04/02 04:55:38;;;;;;;6.22;4.65;;;;;11.40;101512.00;;;;5006089;28;20223;-79
2023/04/02 04:58:14;;;;;;;6.82;5.07;;;;;11.40;101513.00;;;;5002906;28;20208;-79
2023/04/02 05:00:50;;;;;;;5.60;4.82;;;;;11.30;101518.00;;;;5007161;28;20240;-78
2023/04/02 05:03:28;;;;;;;6.78;4.13;;;;;11.30;101517.00;;;;5008775;28;20196;-78
2023/04/02 05:06:03;;;;;;;6.43;4.45;;;;;11.20;101524.00;;;;5006285;28;20212;-79
2023/04/02 05:08:35;;;;;;;4.20;3.63;;;;;11.20;101538.00;;;;5005778;28;20192;-78
2023/04/02 05:11:08;;;;;;;5.53;4.25;;;;;11.10;101532.00;;;;5009235;28;20204;-78
2023/04/02 05:13:42;;;;;;;4.82;3.80;;;;;11.10;101546.00;;;;5008543;28;20209;-79
2023/04/02 05:16:14;;;;;;;4.80;3.60;;;;;11.10;101552.00;;;;5007797;28;20200;-78
2023/04/02 05:18:47;;;;;;;5.47;4.00;;;;;11.10;101553.00;;;;5007812;28;20209;-78
2023/04/02 05:21:20;;;;;;;4.40;3.42;;;;;11.10;101564.00;;;;5002279;28;20594;-78
2023/04/02 05:23:51;;;;;;;5.60;3.80;;;;;11.00;101561.00;;;;5007837;28;20201;-78
2023/04/02 05:26:23;;;;;;;4.40;3.08;;;;;11.00;101575.00;;;;5000801;28;20209;-78
2023/04/02 05:28:57;;;;;;;7.22;3.70;;;;;11.00;101578.00;;;;5007231;28;20219;-78
2023/04/02 05:31:27;;;;;;;4.57;3.30;;;;;11.00;101580.00;;;;5007892;28;20220;-78
2023/04/02 05:33:56;;;;;;;5.13;2.85;;;;;10.90;101585.00;;;;5008454;28;20201;-78
2023/04/02 05:36:26;;;;;;;4.22;3.47;;;;;10.90;101593.00;;;;5006089;28;20205;-78
2023/04/02 05:38:55;;;;;;;4.70;3.03;;;;;10.90;101598.00;;;;5007128;28;20193;-78
2023/04/02 05:41:26;;;;;;;6.30;3.00;;;;;10.90;101604.00;;;;5008323;28;20235;-78
2023/04/02 05:44:02;;;;;;;3.35;2.55;;;;;10.80;101600.00;;;;5002366;28;20200;-78
2023/04/02 05:46:34;;;;;;;3.03;2.22;;;;;10.80;101615.00;;;;5002865;28;20296;-78
2023/04/02 05:49:09;;;;;;;4.20;2.40;;;;;10.70;101616.00;;;;5006095;28;20212;-78
2023/04/02 05:51:41;;;;;;;2.85;2.17;;;;;10.70;101623.00;;;;5006472;28;20219;-78
2023/04/02 05:54:21;;;;;;;3.58;2.08;;;;;10.70;101632.00;;;;5001379;28;20214;-77
2023/04/02 05:56:55;;;;;;;2.42;1.50;;;;;10.70;101634.00;;;;5006859;28;20272;-78
2023/04/02 05:59:25;;;;;;;3.17;2.40;;;;;10.70;101646.00;;;;5002195;28;20239;-78
2023/04/02 06:02:01;;;;;;;3.40;1.80;;;;;10.70;101656.00;;;;5007518;28;20264;-78
2023/04/02 06:04:36;;;;;;;2.30;1.73;;;;;10.70;101658.00;;;;4997052;28;20221;-77
2023/04/02 06:07:10;;;;;;;2.85;1.90;;;;;10.70;101663.00;;;;5004462;28;20200;-76
2023/04/02 06:09:42;;;;;;;2.58;1.70;;;;;10.60;101674.00;;;;5007919;28;21085;-77
2023/04/02 06:12:25;;;;;;;4.68;1.83;;;;;10.50;101686.00;;;;5005451;28;20687;-78
2023/04/02 06:14:52;;;;;;;2.38;1.60;;;;;10.60;101693.00;;;;5002362;28;20201;-77
2023/04/02 06:17:21;;;;;;;3.20;1.70;;;;;10.50;101701.00;;;;5004766;28;20209;-79
2023/04/02 06:19:50;;;;;;;3.88;2.05;;;;;10.50;101705.00;;;;5005597;28;20200;-79
2023/04/02 06:22:25;;;;;;;4.72;1.95;;;;;10.40;101721.00;;;;5004618;28;20197;-79
2023/04/02 06:24:58;;;;;;;1.85;1.38;;;;;10.40;101719.00;;;;5004095;28;20219;-78
2023/04/02 06:27:27;;;;;;;2.83;1.52;;;;;10.40;101726.00;;;;5006600;28;20197;-79
2023/04/02 06:29:58;;;;;;;3.38;1.70;;;;;10.40;101724.00;;;;5006281;28;20209;-78
2023/04/02 06:32:26;;;;;;;3.10;1.75;;;;;10.40;101728.00;;;;5006819;28;20213;-78
2023/04/02 06:34:55;;;;;;;3.65;1.65;;;;;10.40;101744.00;;;;4998765;28;20655;-80
2023/04/02 06:37:29;;;;;;;5.30;1.80;;;;;10.30;101744.00;;;;5002703;28;20255;-77
2023/04/02 06:39:57;;;;;;;3.15;1.90;;;;;10.30;101744.00;;;;5001720;28;20200;-79
2023/04/02 06:42:28;;;;;;;3.95;1.67;;;;;10.30;101760.00;;;;5006708;28;20197;-79
2023/04/02 06:44:55;;;;;;;3.17;1.58;;;;;10.30;101755.00;;;;5005652;28;20205;-79
2023/04/02 06:47:32;;;;;;;6.85;2.08;;;;;10.30;101764.00;;;;5006806;28;20202;-80
2023/04/02 06:50:07;;;;;;;3.38;1.60;;;;;10.30;101764.00;;;;5005568;28;20203;-79
2023/04/02 06:52:39;;;;;;;4.80;2.25;;;;;10.30;101778.00;;;;5007771;28;20211;-80
2023/04/02 06:55:27;;;;;;;5.15;2.05;;;;;10.20;101783.00;;;;5007135;28;20205;-79
2023/04/02 06:57:54;;;;;;;2.85;1.80;;;;;10.30;101781.00;;;;5004274;28;20197;-79
2023/04/02 07:00:28;;;;;;;2.88;2.13;;;;;10.30;101784.00;;;;5005480;28;20240;-80
2023/04/02 07:02:56;;;;;;;2.08;1.88;;;;;10.30;101786.00;;;;5011415;28;20200;-80
2023/04/02 07:05:25;;;;;;;3.88;2.25;;;;;10.40;101794.00;;;;5011306;28;20224;-80
2023/04/02 07:07:53;;;;;;;3.22;2.03;;;;;10.30;101799.00;;;;5009446;28;20200;-80
2023/04/02 07:10:20;;;;;;;5.50;2.65;;;;;10.30;101807.00;;;;5010429;28;20201;-80
2023/04/02 07:12:48;;;;;;;3.17;2.35;;;;;10.30;101813.00;;;;5010506;28;20205;-80
2023/04/02 07:15:17;;;;;;;3.38;2.72;;;;;10.30;101821.00;;;;5010097;28;20617;-79
2023/04/02 07:17:45;;;;;;;3.58;2.55;;;;;10.30;101824.00;;;;5009297;28;20228;-80
2023/04/02 07:20:27;;;;;;;3.25;2.55;;;;;10.30;101832.00;;;;5010663;28;20682;-80
2023/04/02 07:22:54;;;;;;;4.18;2.65;;;;;10.40;101838.00;;;;5007825;28;20219;-79
2023/04/02 07:25:22;;;;;;;3.67;2.45;;;;;10.40;101843.00;;;;5006294;28;20201;-79
2023/04/02 07:27:49;;;;;;;3.25;2.55;;;;;10.50;101845.00;;;;5009277;28;20205;-79
2023/04/02 07:30:17;;;;;;;7.13;3.20;;;;;10.50;101847.00;;;;5011018;28;20201;-78
2023/04/02 07:32:44;;;;;;;5.40;2.70;;;;;10.50;101856.00;;;;5009489;28;20197;-79
2023/04/02 07:35:12;;;;;;;4.43;2.47;;;;;10.60;101863.00;;;;5010116;28;20670;-79
2023/04/02 07:37:41;;;;;;;4.35;2.67;;;;;10.60;101870.00;;;;5008149;28;20655;-80
2023/04/02 07:40:17;;;;;;;4.68;2.83;;;;;10.60;101874.00;;;;5013154;28;20204;-80
2023/04/02 07:42:44;;;;;;;3.58;3.10;;;;;10.70;101879.00;;;;5007830;28;20193;-80
2023/04/02 07:45:12;;;;;;;3.50;2.42;;;;;10.70;101880.00;;;;5010616;28;20201;-81
2023/04/02 07:47:40;;;;;;;3.22;2.92;;;;;10.70;101889.00;;;;5009999;28;20205;-81
2023/04/02 07:50:09;;;;;;;6.25;3.15;;;;;10.70;101893.00;;;;5011059;28;20275;-81
2023/04/02 07:52:42;;;;;;;3.65;2.65;;;;;10.70;101891.00;;;;5009465;28;20312;-80
2023/04/02 07:55:11;;;;;;;3.42;2.72;;;;;10.70;101895.00;;;;5009988;28;20197;-80
2023/04/02 07:57:40;;;;;;;5.03;2.80;;;;;10.70;101896.00;;;;5009393;28;20208;-79
2023/04/02 08:00:10;;;;;;;2.90;2.55;;;;;10.70;101906.00;;;;4994371;28;20267;-81
2023/04/02 08:02:37;;;;;;;2.90;2.47;;;;;10.70;101907.00;;;;5007825;28;20685;-79
2023/04/02 08:05:06;;;;;;;5.55;3.03;;;;;10.70;101907.00;;;;5009399;28;20217;-80
2023/04/02 08:07:33;;;;;;;3.40;2.60;;;;;10.70;101914.00;;;;5006216;28;20280;-79
2023/04/02 08:10:02;;;;;;;3.22;2.90;;;;;10.70;101915.00;;;;5007591;28;20207;-81
2023/04/02 08:12:30;;;;;;;4.32;2.60;;;;;10.80;101914.00;;;;5005839;28;20205;-81
2023/04/02 08:14:57;;;;;;;3.17;2.72;;;;;10.80;101918.00;;;;5004281;28;20668;-81
2023/04/02 08:17:25;;;;;;;4.43;2.75;;;;;10.80;101925.00;;;;4990326;28;20194;-80
2023/04/02 08:19:54;;;;;;;4.32;2.78;;;;;10.70;101932.00;;;;5005254;28;20208;-80
2023/04/02 08:22:22;;;;;;;3.42;2.85;;;;;10.80;101929.00;;;;5009426;28;20283;-80
2023/04/02 08:24:49;;;;;;;4.25;2.90;;;;;10.80;101951.00;;;;5009870;28;20197;-79
2023/04/02 08:27:17;;;;;;;4.60;3.17;;;;;10.80;101955.00;;;;5009221;28;20203;-79
2023/04/02 08:29:45;;;;;;;3.60;2.83;;;;;10.80;101962.00;;;;5008298;28;20201;-79
2023/04/02 08:32:15;;;;;;;4.68;3.22;;;;;10.80;101967.00;;;;5008338;28;20201;-78
2023/04/02 08:34:42;;;;;;;4.82;2.83;;;;;10.80;101969.00;;;;5001888;28;20328;-78
2023/04/02 08:37:11;;;;;;;4.70;2.95;;;;;10.80;101967.00;;;;5008371;28;20200;-78
2023/04/02 08:39:38;;;;;;;4.38;2.90;;;;;10.80;101980.00;;;;5006439;28;20198;-80
2023/04/02 08:42:15;;;;;;;4.13;3.13;;;;;10.80;101976.00;;;;5007273;28;20232;-79
2023/04/02 08:44:54;;;;;;;5.07;3.40;;;;;10.80;101982.00;;;;5007658;28;20686;-80
2023/04/02 08:47:24;;;;;;;4.03;2.92;;;;;10.90;101986.00;;;;5008704;28;20209;-80
2023/04/02 08:49:57;;;;;;;4.38;3.28;;;;;11.00;101990.00;;;;5007258;28;20232;-80
2023/04/02 08:52:27;;;;;;;3.30;2.80;;;;;11.00;101996.00;;;;5008648;28;20209;-80
2023/04/02 08:54:56;;;;;;;3.03;2.72;;;;;11.10;101991.00;;;;5007382;28;20197;-80
2023/04/02 08:57:32;;;;;;;4.30;2.97;;;;;11.10;101999.00;;;;5007302;28;20204;-80
2023/04/02 09:00:09;;;;;;;3.45;2.75;;;;;11.20;102018.00;;;;5000804;28;20231;-81
2023/04/02 09:02:40;;;;;;;5.45;3.10;;;;;11.30;102009.00;;;;4994525;28;20254;-81
2023/04/02 09:05:15;;;;;;;5.20;3.08;;;;;11.30;102020.00;;;;4991014;28;20218;-80
2023/04/02 09:07:42;;;;;;;2.60;2.20;;;;;11.40;102021.00;;;;5001615;28;20204;-79
2023/04/02 09:10:15;;;;;;;3.05;2.35;;;;;11.40;102028.00;;;;5005109;28;20201;-80
2023/04/02 09:12:43;;;;;;;2.42;2.15;;;;;11.50;102027.00;;;;5007515;28;20224;-81
2023/04/02 09:15:23;;;;;;;2.13;1.90;;;;;11.50;102027.00;;;;5009315;28;20292;-80
2023/04/02 09:17:56;;;;;;;3.10;2.28;;;;;11.60;102042.00;;;;5006667;28;20303;-80
2023/04/02 09:20:26;;;;;;;3.00;2.38;;;;;11.70;102043.00;;;;5008678;28;20205;-80
2023/04/02 09:22:55;;;;;;;3.97;2.10;;;;;11.70;102054.00;;;;4988748;28;20232;-81
2023/04/02 09:25:25;;;;;;;2.90;2.35;;;;;11.70;102063.00;;;;5000607;28;20892;-80
2023/04/02 09:27:55;;;;;;;3.70;1.98;;;;;11.70;102069.00;;;;5007623;28;20212;-82
2023/04/02 09:30:37;;;;;;;5.22;2.15;;;;;11.60;102074.00;;;;5009451;28;20193;-81
2023/04/02 09:33:07;;;;;;;5.00;2.38;;;;;11.60;102082.00;;;;5007287;28;20210;-81
2023/04/02 09:35:36;;;;;;;2.95;2.20;;;;;11.60;102091.00;;;;5008011;28;20283;-80
2023/04/02 09:38:30;;;;;;;3.03;2.03;;;;;11.50;102092.00;;;;5006900;28;20223;-81
2023/04/02 09:41:00;;;;;;;3.17;1.95;;;;;11.60;102096.00;;;;4979706;28;20201;-80
2023/04/02 09:43:28;;;;;;;1.60;1.50;;;;;11.60;102097.00;;;;5003996;28;20201;-80
2023/04/02 09:46:00;;;;;;;2.47;1.65;;;;;11.60;102092.00;;;;5008062;28;20205;-80
2023/04/02 09:48:30;;;;;;;2.10;1.60;;;;;11.60;102096.00;;;;5008458;28;20215;-80
2023/04/02 09:51:06;;;;;;;2.40;1.52;;;;;11.60;102100.00;;;;5004732;28;20685;-81
2023/04/02 09:53:36;;;;;;;3.97;2.03;;;;;11.70;102107.00;;;;5005703;28;20204;-80
2023/04/02 09:56:12;;;;;;;1.80;1.33;;;;;11.70;102109.00;;;;5005212;28;20212;-81
2023/04/02 09:58:40;;;;;;;3.17;1.63;;;;;11.80;102119.00;;;;5003842;28;20200;-80
2023/04/02 10:01:27;;;;;;;2.35;1.75;;;;;11.80;102129.00;;;;5000104;28;20647;-83
2023/04/02 10:03:55;;;;;;;2.67;1.50;;;;;11.90;102127.00;;;;4995212;28;20224;-81
2023/04/02 10:06:22;;;;;;;2.63;1.33;;;;;11.90;102109.00;;;;5003150;28;20197;-80
2023/04/02 10:08:50;;;;;;;4.40;1.30;;;;;12.00;102134.00;;;;5000908;28;20211;-80
2023/04/02 10:11:23;;;;;;;3.53;1.20;;;;;12.00;102129.00;;;;5005015;28;20193;-82
2023/04/02 10:13:54;;;;;;;3.08;1.60;;;;;12.10;102143.00;;;;5003382;28;20259;-81
2023/04/02 10:16:31;;;;;;;1.08;0.90;;;;;12.20;102132.00;;;;5005138;28;20204;-82
2023/04/02 10:19:03;;;;;;;1.42;0.98;;;;;12.30;102128.00;;;;5006205;28;20201;-81
2023/04/02 10:21:33;;;;;;;3.20;1.15;;;;;12.30;102128.00;;;;5007221;28;20217;-82
2023/04/02 10:24:01;;;;;;;1.95;1.15;;;;;12.40;102138.00;;;;5007171;28;20207;-82
2023/04/02 10:26:47;;;;;;;3.78;1.38;;;;;12.40;102142.00;;;;5006178;28;20193;-82
2023/04/02 10:29:32;;;;;;;4.88;1.40;;;;;12.50;102144.00;;;;5006814;28;20200;-83
2023/04/02 10:32:07;;;;;;;1.45;0.82;;;;;12.60;102142.00;;;;4994743;28;20210;-81
2023/04/02 10:34:43;;;;;;;1.50;0.90;;;;;12.70;102145.00;;;;4986873;28;20209;-83
2023/04/02 10:37:37;;;;;;;1.85;1.20;;;;;12.70;102143.00;;;;4992712;28;20197;-82
2023/04/02 10:40:11;;;;;;;3.38;1.25;;;;;12.80;102155.00;;;;4997676;28;20713;-82
2023/04/02 10:42:48;;;;;;;4.72;1.15;;;;;12.90;102152.00;;;;5008463;28;20239;-83
2023/04/02 10:45:31;;;;;;;3.28;1.00;;;;;13.00;102145.00;;;;5007326;28;20689;-82
2023/04/02 10:48:08;;;;;;;2.58;1.25;;;;;13.10;102145.00;;;;5007648;28;20209;-82
2023/04/02 10:50:41;;;;;;;1.52;1.00;;;;;13.20;102145.00;;;;5007465;28;20208;-82
2023/04/02 10:53:15;;;;;;;3.72;1.20;;;;;13.30;102152.00;;;;5008650;28;20205;-83
2023/04/02 10:55:47;;;;;;;2.97;1.30;;;;;13.50;102153.00;;;;4997091;28;20837;-83
2023/04/02 10:58:23;;;;;;;2.08;1.10;;;;;13.50;102152.00;;;;5011669;28;20209;-82
2023/04/02 11:00:55;;;;;;;1.92;1.05;;;;;13.70;102169.00;;;;5010391;28;20251;-82
2023/04/02 11:03:35;;;;;;;2.35;1.15;;;;;13.70;102158.00;;;;5011659;28;20609;-82
2023/04/02 11:06:11;;;;;;;2.13;1.17;;;;;13.90;102165.00;;;;5008426;28;20203;-82
2023/04/02 11:08:42;;;;;;;2.33;1.60;;;;;14.00;102162.00;;;;5010181;28;20259;-82
2023/04/02 11:11:14;;;;;;;2.72;1.08;;;;;14.00;102179.00;;;;5011296;28;20193;-82
2023/04/02 11:13:50;;;;;;;3.10;1.50;;;;;14.00;102174.00;;;;4991159;28;20194;-82
2023/04/02 11:16:18;;;;;;;3.92;1.77;;;;;14.10;102168.00;;;;4991317;28;20683;-82
2023/04/02 11:19:21;;;;;;;3.28;1.42;;;;;14.10;102172.00;;;;5008328;28;20208;-82
2023/04/02 11:21:51;;;;;;;2.70;1.35;;;;;14.30;102182.00;;;;5009778;28;20282;-82
2023/04/02 11:24:31;;;;;;;2.92;1.70;;;;;14.40;102196.00;;;;5011304;28;20197;-82
2023/04/02 11:27:14;;;;;;;1.85;1.20;;;;;14.40;102186.00;;;;5010016;28;20654;-82
2023/04/02 11:29:45;;;;;;;3.50;1.83;;;;;14.50;102193.00;;;;5010536;28;20200;-82
2023/04/02 11:32:27;;;;;;;2.70;1.42;;;;;14.50;102200.00;;;;5011230;28;20209;-82
2023/04/02 11:35:16;;;;;;;3.38;1.40;;;;;14.50;102195.00;;;;5010108;28;20220;-82
2023/04/02 11:37:45;;;;;;;1.25;0.90;;;;;14.60;102202.00;;;;5009148;28;21100;-82
2023/04/02 11:40:47;;;;;;;1.75;1.27;;;;;14.50;102205.00;;;;5002366;28;20280;-83
2023/04/02 11:43:49;;;;;;;5.15;1.38;;;;;14.60;102203.00;;;;4930406;29;20242;-82
2023/04/02 11:46:44;;;;;;;4.10;1.83;;;;;14.60;102210.00;;;;4931159;29;20213;-82
2023/04/02 11:49:34;;;;;;;3.22;1.30;;;;;14.60;102220.00;;;;5001916;28;20574;-81
2023/04/02 11:52:04;;;;;;;3.97;1.45;;;;;14.70;102218.00;;;;5010059;28;20686;-82
2023/04/02 11:54:37;;;;;;;3.38;1.52;;;;;14.80;102229.00;;;;5007590;28;20201;-82
2023/04/02 11:57:18;;;;;;;3.13;1.55;;;;;14.90;102224.00;;;;5007232;28;20201;-83
2023/04/02 11:59:57;;;;;;;2.55;1.38;;;;;14.90;102222.00;;;;5007043;28;20786;-82
2023/04/02 12:02:29;;;;;;;2.22;1.15;;;;;15.00;102220.00;;;;5010058;28;20312;-83
2023/04/02 12:05:19;;;;;;;3.00;1.38;;;;;15.00;102234.00;;;;5005831;28;20303;-82
2023/04/02 12:08:16;;;;;;;3.45;1.30;;;;;15.10;102226.00;;;;4994696;28;20594;-82
2023/04/02 12:10:55;;;;;;;5.88;1.75;;;;;15.20;102232.00;;;;5009458;28;20287;-82
2023/04/02 12:13:50;;;;;;;1.60;1.10;;;;;15.20;102237.00;;;;5009639;28;20196;-83
2023/04/02 12:16:18;;;;;;;3.20;1.48;;;;;15.40;102243.00;;;;5010100;28;20604;-83
2023/04/02 12:18:47;;;;;;;1.85;1.40;;;;;15.50;102243.00;;;;5007284;28;20279;-82
2023/04/02 12:21:20;;;;;;;4.00;1.30;;;;;15.50;102250.00;;;;5009553;28;20303;-82
2023/04/02 12:23:51;;;;;;;2.70;1.30;;;;;15.60;102246.00;;;;5008799;28;20347;-84
2023/04/02 12:26:30;;;;;;;1.40;1.30;;;;;15.50;102255.00;;;;5014771;28;20279;-82
2023/04/02 12:29:31;;;;;;;1.73;1.25;;;;;15.50;102254.00;;;;5029609;28;20192;-82
2023/04/02 12:31:59;;;;;;;3.78;1.20;;;;;15.60;102254.00;;;;4990115;28;20209;-83
2023/04/02 12:34:28;;;;;;;2.45;1.40;;;;;15.70;102246.00;;;;4989863;28;20205;-82
2023/04/02 12:37:01;;;;;;;3.75;1.58;;;;;15.70;102254.00;;;;5004603;28;20193;-82
2023/04/02 12:39:31;;;;;;;2.85;1.20;;;;;15.70;102255.00;;;;5009252;28;20200;-82